sensor_id;sensor_type;location;lat;lon;timestamp;P1;durP1;ratioP1;P2;durP2;ratioP2
19830;SDS011;10076;52.008;4.708;2022-08-16T00:02:23;18.17;;;10.75;;
19830;SDS011;10076;52.008;4.708;2022-08-16T00:04:48;21.27;;;11.40;;
19830;SDS011;10076;52.008;4.708;2022-08-16T00:07:14;18.05;;;10.55;;
19830;SDS011;10076;52.008;4.708;2022-08-16T00:09:39;19.40;;;11.60;;
19830;SDS011;10076;52.008;4.708;2022-08-16T00:12:05;21.52;;;12.00;;
19830;SDS011;10076;52.008;4.708;2022-08-16T00:14:31;21.80;;;12.55;;
19830;SDS011;10076;52.008;4.708;2022-08-16T00:16:57;19.90;;;11.27;;
19830;SDS011;10076;52.008;4.708;2022-08-16T00:19:26;21.25;;;12.48;;
19830;SDS011;10076;52.008;4.708;2022-08-16T00:21:56;20.92;;;11.77;;
19830;SDS011;10076;52.008;4.708;2022-08-16T00:24:23;19.38;;;12.05;;
19830;SDS011;10076;52.008;4.708;2022-08-16T00:26:50;21.58;;;12.02;;
19830;SDS011;10076;52.008;4.708;2022-08-16T00:29:16;23.25;;;12.15;;
19830;SDS011;10076;52.008;4.708;2022-08-16T00:31:42;21.85;;;12.13;;
19830;SDS011;10076;52.008;4.708;2022-08-16T00:34:14;23.88;;;12.20;;
19830;SDS011;10076;52.008;4.708;2022-08-16T00:36:40;22.50;;;13.52;;
19830;SDS011;10076;52.008;4.708;2022-08-16T00:39:05;20.48;;;11.68;;
19830;SDS011;10076;52.008;4.708;2022-08-16T00:41:31;23.45;;;12.68;;
19830;SDS011;10076;52.008;4.708;2022-08-16T00:43:59;19.67;;;11.95;;
19830;SDS011;10076;52.008;4.708;2022-08-16T00:46:31;18.35;;;11.60;;
19830;SDS011;10076;52.008;4.708;2022-08-16T00:48:58;20.67;;;12.05;;
19830;SDS011;10076;52.008;4.708;2022-08-16T00:51:25;23.90;;;12.13;;
19830;SDS011;10076;52.008;4.708;2022-08-16T00:53:51;26.80;;;13.00;;
19830;SDS011;10076;52.008;4.708;2022-08-16T00:56:19;24.58;;;13.00;;
19830;SDS011;10076;52.008;4.708;2022-08-16T00:58:48;21.10;;;12.18;;
19830;SDS011;10076;52.008;4.708;2022-08-16T01:01:14;23.95;;;12.75;;
19830;SDS011;10076;52.008;4.708;2022-08-16T01:03:41;21.88;;;11.70;;
19830;SDS011;10076;52.008;4.708;2022-08-16T01:06:10;20.60;;;12.02;;
19830;SDS011;10076;52.008;4.708;2022-08-16T01:08:37;21.10;;;12.18;;
19830;SDS011;10076;52.008;4.708;2022-08-16T01:11:06;25.30;;;12.95;;
19830;SDS011;10076;52.008;4.708;2022-08-16T01:13:33;24.50;;;13.30;;
19830;SDS011;10076;52.008;4.708;2022-08-16T01:16:04;23.83;;;12.90;;
19830;SDS011;10076;52.008;4.708;2022-08-16T01:18:35;24.00;;;13.38;;
19830;SDS011;10076;52.008;4.708;2022-08-16T01:26:33;24.30;;;13.32;;
19830;SDS011;10076;52.008;4.708;2022-08-16T01:29:02;24.27;;;12.57;;
19830;SDS011;10076;52.008;4.708;2022-08-16T01:31:32;24.08;;;12.68;;
19830;SDS011;10076;52.008;4.708;2022-08-16T01:33:57;25.05;;;13.10;;
19830;SDS011;10076;52.008;4.708;2022-08-16T01:36:23;26.10;;;14.15;;
19830;SDS011;10076;52.008;4.708;2022-08-16T01:38:49;25.17;;;13.85;;
19830;SDS011;10076;52.008;4.708;2022-08-16T01:41:16;22.73;;;12.88;;
19830;SDS011;10076;52.008;4.708;2022-08-16T01:43:44;24.55;;;13.68;;
19830;SDS011;10076;52.008;4.708;2022-08-16T01:46:28;29.27;;;13.80;;
19830;SDS011;10076;52.008;4.708;2022-08-16T01:49:00;27.13;;;14.45;;
19830;SDS011;10076;52.008;4.708;2022-08-16T01:51:29;25.20;;;14.32;;
19830;SDS011;10076;52.008;4.708;2022-08-16T01:53:55;24.40;;;14.65;;
19830;SDS011;10076;52.008;4.708;2022-08-16T01:56:21;27.60;;;13.93;;
19830;SDS011;10076;52.008;4.708;2022-08-16T01:58:48;26.02;;;14.20;;
19830;SDS011;10076;52.008;4.708;2022-08-16T02:01:13;26.52;;;14.50;;
19830;SDS011;10076;52.008;4.708;2022-08-16T02:03:40;26.35;;;13.63;;
19830;SDS011;10076;52.008;4.708;2022-08-16T02:06:05;27.25;;;13.65;;
19830;SDS011;10076;52.008;4.708;2022-08-16T02:08:32;22.65;;;13.18;;
19830;SDS011;10076;52.008;4.708;2022-08-16T02:10:57;25.38;;;12.98;;
19830;SDS011;10076;52.008;4.708;2022-08-16T02:13:23;23.73;;;12.35;;
19830;SDS011;10076;52.008;4.708;2022-08-16T02:15:48;24.35;;;13.07;;
19830;SDS011;10076;52.008;4.708;2022-08-16T02:18:14;20.08;;;12.07;;
19830;SDS011;10076;52.008;4.708;2022-08-16T02:20:40;21.10;;;12.20;;
19830;SDS011;10076;52.008;4.708;2022-08-16T02:23:11;23.38;;;12.60;;
19830;SDS011;10076;52.008;4.708;2022-08-16T02:25:36;22.42;;;11.52;;
19830;SDS011;10076;52.008;4.708;2022-08-16T02:28:02;24.98;;;12.70;;
19830;SDS011;10076;52.008;4.708;2022-08-16T02:30:28;19.60;;;11.00;;
19830;SDS011;10076;52.008;4.708;2022-08-16T02:32:55;20.92;;;11.85;;
19830;SDS011;10076;52.008;4.708;2022-08-16T02:35:22;25.08;;;11.75;;
19830;SDS011;10076;52.008;4.708;2022-08-16T02:37:48;22.65;;;11.50;;
19830;SDS011;10076;52.008;4.708;2022-08-16T02:40:13;19.83;;;10.98;;
19830;SDS011;10076;52.008;4.708;2022-08-16T02:42:41;17.95;;;11.48;;
19830;SDS011;10076;52.008;4.708;2022-08-16T02:45:08;20.58;;;10.82;;
19830;SDS011;10076;52.008;4.708;2022-08-16T02:47:33;21.75;;;11.77;;
19830;SDS011;10076;52.008;4.708;2022-08-16T02:49:59;25.95;;;13.05;;
19830;SDS011;10076;52.008;4.708;2022-08-16T02:52:25;22.17;;;13.18;;
19830;SDS011;10076;52.008;4.708;2022-08-16T02:54:50;22.73;;;11.35;;
19830;SDS011;10076;52.008;4.708;2022-08-16T02:57:15;21.45;;;11.57;;
19830;SDS011;10076;52.008;4.708;2022-08-16T02:59:40;24.27;;;12.88;;
19830;SDS011;10076;52.008;4.708;2022-08-16T03:02:07;22.50;;;12.27;;
19830;SDS011;10076;52.008;4.708;2022-08-16T03:04:34;19.38;;;11.23;;
19830;SDS011;10076;52.008;4.708;2022-08-16T03:07:00;22.98;;;12.07;;
19830;SDS011;10076;52.008;4.708;2022-08-16T03:09:25;23.83;;;11.48;;
19830;SDS011;10076;52.008;4.708;2022-08-16T03:11:52;22.98;;;11.95;;
19830;SDS011;10076;52.008;4.708;2022-08-16T03:14:17;23.77;;;12.25;;
19830;SDS011;10076;52.008;4.708;2022-08-16T03:16:43;22.10;;;11.57;;
19830;SDS011;10076;52.008;4.708;2022-08-16T03:19:08;21.30;;;11.80;;
19830;SDS011;10076;52.008;4.708;2022-08-16T03:21:34;26.77;;;13.27;;
19830;SDS011;10076;52.008;4.708;2022-08-16T03:24:00;22.65;;;11.65;;
19830;SDS011;10076;52.008;4.708;2022-08-16T03:26:25;21.55;;;12.07;;
19830;SDS011;10076;52.008;4.708;2022-08-16T03:28:51;23.13;;;13.02;;
19830;SDS011;10076;52.008;4.708;2022-08-16T03:31:16;24.20;;;12.55;;
19830;SDS011;10076;52.008;4.708;2022-08-16T03:33:42;23.45;;;11.82;;
19830;SDS011;10076;52.008;4.708;2022-08-16T03:36:07;22.00;;;12.10;;
19830;SDS011;10076;52.008;4.708;2022-08-16T03:38:32;23.10;;;12.65;;
19830;SDS011;10076;52.008;4.708;2022-08-16T03:40:59;24.50;;;13.80;;
19830;SDS011;10076;52.008;4.708;2022-08-16T03:43:25;23.70;;;13.15;;
19830;SDS011;10076;52.008;4.708;2022-08-16T03:45:52;25.90;;;14.35;;
19830;SDS011;10076;52.008;4.708;2022-08-16T03:48:20;25.30;;;12.35;;
19830;SDS011;10076;52.008;4.708;2022-08-16T03:50:47;23.48;;;12.23;;
19830;SDS011;10076;52.008;4.708;2022-08-16T03:53:13;25.25;;;12.07;;
19830;SDS011;10076;52.008;4.708;2022-08-16T03:55:38;22.38;;;12.35;;
19830;SDS011;10076;52.008;4.708;2022-08-16T03:58:03;21.92;;;12.20;;
19830;SDS011;10076;52.008;4.708;2022-08-16T04:00:29;25.83;;;13.00;;
19830;SDS011;10076;52.008;4.708;2022-08-16T04:02:55;24.45;;;14.02;;
19830;SDS011;10076;52.008;4.708;2022-08-16T04:05:21;28.52;;;12.63;;
19830;SDS011;10076;52.008;4.708;2022-08-16T04:07:47;24.40;;;12.93;;
19830;SDS011;10076;52.008;4.708;2022-08-16T04:10:15;25.38;;;13.32;;
19830;SDS011;10076;52.008;4.708;2022-08-16T04:12:41;26.05;;;12.75;;
19830;SDS011;10076;52.008;4.708;2022-08-16T04:15:09;27.58;;;13.55;;
19830;SDS011;10076;52.008;4.708;2022-08-16T04:17:36;26.02;;;12.73;;
19830;SDS011;10076;52.008;4.708;2022-08-16T04:20:02;29.40;;;13.75;;
19830;SDS011;10076;52.008;4.708;2022-08-16T04:22:32;26.77;;;14.27;;
19830;SDS011;10076;52.008;4.708;2022-08-16T04:24:57;24.80;;;13.57;;
19830;SDS011;10076;52.008;4.708;2022-08-16T04:27:23;25.08;;;12.88;;
19830;SDS011;10076;52.008;4.708;2022-08-16T04:29:49;26.15;;;13.82;;
19830;SDS011;10076;52.008;4.708;2022-08-16T04:32:14;27.50;;;14.30;;
19830;SDS011;10076;52.008;4.708;2022-08-16T04:34:39;32.45;;;13.93;;
19830;SDS011;10076;52.008;4.708;2022-08-16T04:37:05;28.23;;;14.65;;
19830;SDS011;10076;52.008;4.708;2022-08-16T04:39:32;30.60;;;14.35;;
19830;SDS011;10076;52.008;4.708;2022-08-16T04:41:58;24.67;;;12.73;;
19830;SDS011;10076;52.008;4.708;2022-08-16T04:44:24;29.38;;;15.00;;
19830;SDS011;10076;52.008;4.708;2022-08-16T04:46:50;29.33;;;15.63;;
19830;SDS011;10076;52.008;4.708;2022-08-16T04:49:16;29.52;;;14.52;;
19830;SDS011;10076;52.008;4.708;2022-08-16T04:51:41;30.73;;;15.18;;
19830;SDS011;10076;52.008;4.708;2022-08-16T04:54:07;26.02;;;14.40;;
19830;SDS011;10076;52.008;4.708;2022-08-16T04:56:33;26.80;;;14.25;;
19830;SDS011;10076;52.008;4.708;2022-08-16T04:58:59;31.40;;;15.32;;
19830;SDS011;10076;52.008;4.708;2022-08-16T05:01:24;28.10;;;14.45;;
19830;SDS011;10076;52.008;4.708;2022-08-16T05:03:50;27.77;;;13.95;;
19830;SDS011;10076;52.008;4.708;2022-08-16T05:06:16;25.10;;;14.20;;
19830;SDS011;10076;52.008;4.708;2022-08-16T05:08:41;27.85;;;14.25;;
19830;SDS011;10076;52.008;4.708;2022-08-16T05:11:08;33.05;;;15.07;;
19830;SDS011;10076;52.008;4.708;2022-08-16T05:13:40;31.27;;;15.52;;
19830;SDS011;10076;52.008;4.708;2022-08-16T05:16:11;30.75;;;14.68;;
19830;SDS011;10076;52.008;4.708;2022-08-16T05:18:43;28.13;;;15.10;;
19830;SDS011;10076;52.008;4.708;2022-08-16T05:21:09;33.42;;;15.60;;
19830;SDS011;10076;52.008;4.708;2022-08-16T05:23:34;29.90;;;15.43;;
19830;SDS011;10076;52.008;4.708;2022-08-16T05:25:59;30.55;;;13.90;;
19830;SDS011;10076;52.008;4.708;2022-08-16T05:28:25;26.08;;;14.60;;
19830;SDS011;10076;52.008;4.708;2022-08-16T05:30:51;30.67;;;16.10;;
19830;SDS011;10076;52.008;4.708;2022-08-16T05:33:17;25.90;;;13.70;;
19830;SDS011;10076;52.008;4.708;2022-08-16T05:35:45;30.40;;;14.23;;
19830;SDS011;10076;52.008;4.708;2022-08-16T05:38:11;27.65;;;14.10;;
19830;SDS011;10076;52.008;4.708;2022-08-16T05:40:36;29.40;;;14.52;;
19830;SDS011;10076;52.008;4.708;2022-08-16T05:43:02;28.38;;;13.85;;
19830;SDS011;10076;52.008;4.708;2022-08-16T05:45:27;28.95;;;14.85;;
19830;SDS011;10076;52.008;4.708;2022-08-16T05:47:53;26.15;;;13.85;;
19830;SDS011;10076;52.008;4.708;2022-08-16T05:50:18;23.67;;;12.50;;
19830;SDS011;10076;52.008;4.708;2022-08-16T05:52:43;26.33;;;14.65;;
19830;SDS011;10076;52.008;4.708;2022-08-16T05:55:08;26.38;;;13.77;;
19830;SDS011;10076;52.008;4.708;2022-08-16T05:57:34;23.83;;;13.95;;
19830;SDS011;10076;52.008;4.708;2022-08-16T05:59:59;27.25;;;15.68;;
19830;SDS011;10076;52.008;4.708;2022-08-16T06:02:25;26.70;;;13.80;;
19830;SDS011;10076;52.008;4.708;2022-08-16T06:04:51;24.50;;;14.45;;
19830;SDS011;10076;52.008;4.708;2022-08-16T06:07:17;24.02;;;14.65;;
19830;SDS011;10076;52.008;4.708;2022-08-16T06:09:43;29.13;;;15.15;;
19830;SDS011;10076;52.008;4.708;2022-08-16T06:12:09;27.27;;;13.30;;
19830;SDS011;10076;52.008;4.708;2022-08-16T06:14:36;24.65;;;13.55;;
19830;SDS011;10076;52.008;4.708;2022-08-16T06:17:01;31.33;;;15.18;;
19830;SDS011;10076;52.008;4.708;2022-08-16T06:19:26;25.23;;;15.23;;
19830;SDS011;10076;52.008;4.708;2022-08-16T06:21:52;30.80;;;16.20;;
19830;SDS011;10076;52.008;4.708;2022-08-16T06:24:17;29.75;;;15.50;;
19830;SDS011;10076;52.008;4.708;2022-08-16T06:26:42;28.73;;;15.43;;
19830;SDS011;10076;52.008;4.708;2022-08-16T06:29:07;26.67;;;14.57;;
19830;SDS011;10076;52.008;4.708;2022-08-16T06:31:33;28.65;;;15.85;;
19830;SDS011;10076;52.008;4.708;2022-08-16T06:33:58;28.10;;;15.23;;
19830;SDS011;10076;52.008;4.708;2022-08-16T06:36:23;30.45;;;16.30;;
19830;SDS011;10076;52.008;4.708;2022-08-16T06:38:50;30.33;;;15.20;;
19830;SDS011;10076;52.008;4.708;2022-08-16T06:41:15;27.67;;;16.63;;
19830;SDS011;10076;52.008;4.708;2022-08-16T06:43:40;30.02;;;16.65;;
19830;SDS011;10076;52.008;4.708;2022-08-16T06:46:06;29.48;;;15.38;;
19830;SDS011;10076;52.008;4.708;2022-08-16T06:48:34;29.83;;;16.65;;
19830;SDS011;10076;52.008;4.708;2022-08-16T06:51:04;30.67;;;15.82;;
19830;SDS011;10076;52.008;4.708;2022-08-16T06:53:30;28.77;;;16.40;;
19830;SDS011;10076;52.008;4.708;2022-08-16T06:55:58;28.98;;;15.80;;
19830;SDS011;10076;52.008;4.708;2022-08-16T06:58:24;29.45;;;16.92;;
19830;SDS011;10076;52.008;4.708;2022-08-16T07:00:50;30.00;;;16.70;;
19830;SDS011;10076;52.008;4.708;2022-08-16T07:03:15;26.60;;;15.30;;
19830;SDS011;10076;52.008;4.708;2022-08-16T07:05:40;24.95;;;14.70;;
19830;SDS011;10076;52.008;4.708;2022-08-16T07:08:06;29.63;;;15.98;;
19830;SDS011;10076;52.008;4.708;2022-08-16T07:10:35;27.13;;;15.45;;
19830;SDS011;10076;52.008;4.708;2022-08-16T07:13:00;26.45;;;15.68;;
19830;SDS011;10076;52.008;4.708;2022-08-16T07:15:25;27.80;;;15.68;;
19830;SDS011;10076;52.008;4.708;2022-08-16T07:17:51;26.38;;;15.25;;
19830;SDS011;10076;52.008;4.708;2022-08-16T07:20:16;31.73;;;16.42;;
19830;SDS011;10076;52.008;4.708;2022-08-16T07:22:43;26.90;;;16.35;;
19830;SDS011;10076;52.008;4.708;2022-08-16T07:25:10;30.58;;;16.23;;
19830;SDS011;10076;52.008;4.708;2022-08-16T07:27:37;26.70;;;15.55;;
19830;SDS011;10076;52.008;4.708;2022-08-16T07:30:05;28.35;;;15.43;;
19830;SDS011;10076;52.008;4.708;2022-08-16T07:32:32;24.65;;;13.77;;
19830;SDS011;10076;52.008;4.708;2022-08-16T07:34:58;27.23;;;14.93;;
19830;SDS011;10076;52.008;4.708;2022-08-16T07:37:23;26.13;;;16.17;;
19830;SDS011;10076;52.008;4.708;2022-08-16T07:39:48;28.33;;;15.13;;
19830;SDS011;10076;52.008;4.708;2022-08-16T07:42:14;27.38;;;15.82;;
19830;SDS011;10076;52.008;4.708;2022-08-16T07:44:39;30.08;;;16.10;;
19830;SDS011;10076;52.008;4.708;2022-08-16T07:47:04;28.88;;;16.67;;
19830;SDS011;10076;52.008;4.708;2022-08-16T07:49:30;27.35;;;16.17;;
19830;SDS011;10076;52.008;4.708;2022-08-16T07:51:55;22.75;;;14.27;;
19830;SDS011;10076;52.008;4.708;2022-08-16T07:54:20;27.65;;;15.82;;
19830;SDS011;10076;52.008;4.708;2022-08-16T07:56:46;27.50;;;16.45;;
19830;SDS011;10076;52.008;4.708;2022-08-16T07:59:11;28.13;;;16.00;;
19830;SDS011;10076;52.008;4.708;2022-08-16T08:01:36;25.08;;;15.50;;
19830;SDS011;10076;52.008;4.708;2022-08-16T08:04:02;28.00;;;15.98;;
19830;SDS011;10076;52.008;4.708;2022-08-16T08:06:29;26.17;;;15.95;;
19830;SDS011;10076;52.008;4.708;2022-08-16T08:08:56;27.58;;;16.15;;
19830;SDS011;10076;52.008;4.708;2022-08-16T08:11:22;27.13;;;15.50;;
19830;SDS011;10076;52.008;4.708;2022-08-16T08:13:49;25.13;;;15.27;;
19830;SDS011;10076;52.008;4.708;2022-08-16T08:16:16;25.63;;;15.82;;
19830;SDS011;10076;52.008;4.708;2022-08-16T08:18:43;28.20;;;16.75;;
19830;SDS011;10076;52.008;4.708;2022-08-16T08:21:09;28.15;;;16.90;;
19830;SDS011;10076;52.008;4.708;2022-08-16T08:23:34;25.05;;;15.35;;
19830;SDS011;10076;52.008;4.708;2022-08-16T08:26:03;26.67;;;15.70;;
19830;SDS011;10076;52.008;4.708;2022-08-16T08:28:28;29.77;;;16.80;;
19830;SDS011;10076;52.008;4.708;2022-08-16T08:30:55;24.02;;;16.13;;
19830;SDS011;10076;52.008;4.708;2022-08-16T08:33:22;25.13;;;15.73;;
19830;SDS011;10076;52.008;4.708;2022-08-16T08:35:47;25.45;;;16.67;;
19830;SDS011;10076;52.008;4.708;2022-08-16T08:38:12;27.60;;;15.88;;
19830;SDS011;10076;52.008;4.708;2022-08-16T08:40:38;26.50;;;16.98;;
19830;SDS011;10076;52.008;4.708;2022-08-16T08:43:03;26.58;;;15.88;;
19830;SDS011;10076;52.008;4.708;2022-08-16T08:45:29;26.35;;;16.55;;
19830;SDS011;10076;52.008;4.708;2022-08-16T08:47:54;27.33;;;17.23;;
19830;SDS011;10076;52.008;4.708;2022-08-16T08:50:21;26.42;;;17.20;;
19830;SDS011;10076;52.008;4.708;2022-08-16T08:52:46;27.42;;;16.50;;
19830;SDS011;10076;52.008;4.708;2022-08-16T08:55:13;26.75;;;17.13;;
19830;SDS011;10076;52.008;4.708;2022-08-16T08:57:39;25.15;;;16.35;;
19830;SDS011;10076;52.008;4.708;2022-08-16T09:00:08;24.58;;;16.40;;
19830;SDS011;10076;52.008;4.708;2022-08-16T09:02:36;24.67;;;16.27;;
19830;SDS011;10076;52.008;4.708;2022-08-16T09:05:01;26.63;;;16.75;;
19830;SDS011;10076;52.008;4.708;2022-08-16T09:07:27;26.55;;;16.83;;
19830;SDS011;10076;52.008;4.708;2022-08-16T09:09:52;23.88;;;15.57;;
19830;SDS011;10076;52.008;4.708;2022-08-16T09:12:17;29.30;;;16.98;;
19830;SDS011;10076;52.008;4.708;2022-08-16T09:14:43;23.83;;;16.77;;
19830;SDS011;10076;52.008;4.708;2022-08-16T09:17:09;26.70;;;16.33;;
19830;SDS011;10076;52.008;4.708;2022-08-16T09:19:35;25.70;;;16.35;;
19830;SDS011;10076;52.008;4.708;2022-08-16T09:22:02;26.90;;;15.98;;
19830;SDS011;10076;52.008;4.708;2022-08-16T09:24:28;26.42;;;16.15;;
19830;SDS011;10076;52.008;4.708;2022-08-16T09:26:54;29.88;;;17.20;;
19830;SDS011;10076;52.008;4.708;2022-08-16T09:29:19;26.75;;;16.98;;
19830;SDS011;10076;52.008;4.708;2022-08-16T09:31:45;26.30;;;16.52;;
19830;SDS011;10076;52.008;4.708;2022-08-16T09:34:11;24.48;;;15.85;;
19830;SDS011;10076;52.008;4.708;2022-08-16T09:36:36;27.95;;;16.98;;
19830;SDS011;10076;52.008;4.708;2022-08-16T09:39:02;26.92;;;16.20;;
19830;SDS011;10076;52.008;4.708;2022-08-16T09:41:28;31.13;;;17.90;;
19830;SDS011;10076;52.008;4.708;2022-08-16T09:43:54;26.30;;;16.75;;
19830;SDS011;10076;52.008;4.708;2022-08-16T09:46:20;30.48;;;16.98;;
19830;SDS011;10076;52.008;4.708;2022-08-16T09:48:45;26.38;;;17.77;;
19830;SDS011;10076;52.008;4.708;2022-08-16T09:51:11;25.23;;;15.93;;
19830;SDS011;10076;52.008;4.708;2022-08-16T09:53:37;26.92;;;16.98;;
19830;SDS011;10076;52.008;4.708;2022-08-16T09:56:04;22.17;;;15.30;;
19830;SDS011;10076;52.008;4.708;2022-08-16T09:58:34;22.33;;;15.32;;
19830;SDS011;10076;52.008;4.708;2022-08-16T10:00:59;21.65;;;14.32;;
19830;SDS011;10076;52.008;4.708;2022-08-16T10:03:24;21.70;;;16.15;;
19830;SDS011;10076;52.008;4.708;2022-08-16T10:05:50;22.65;;;14.70;;
19830;SDS011;10076;52.008;4.708;2022-08-16T10:08:15;23.50;;;14.88;;
19830;SDS011;10076;52.008;4.708;2022-08-16T10:10:41;19.10;;;14.32;;
19830;SDS011;10076;52.008;4.708;2022-08-16T10:13:27;19.02;;;13.75;;
19830;SDS011;10076;52.008;4.708;2022-08-16T10:15:53;21.13;;;14.95;;
19830;SDS011;10076;52.008;4.708;2022-08-16T10:18:23;17.08;;;12.63;;
19830;SDS011;10076;52.008;4.708;2022-08-16T10:20:51;18.42;;;13.57;;
19830;SDS011;10076;52.008;4.708;2022-08-16T10:23:17;17.60;;;13.00;;
19830;SDS011;10076;52.008;4.708;2022-08-16T10:25:43;17.55;;;12.20;;
19830;SDS011;10076;52.008;4.708;2022-08-16T10:28:10;16.75;;;12.85;;
19830;SDS011;10076;52.008;4.708;2022-08-16T10:30:36;17.17;;;11.93;;
19830;SDS011;10076;52.008;4.708;2022-08-16T10:33:02;16.55;;;12.43;;
19830;SDS011;10076;52.008;4.708;2022-08-16T10:35:29;16.65;;;13.00;;
19830;SDS011;10076;52.008;4.708;2022-08-16T10:37:55;16.70;;;13.10;;
19830;SDS011;10076;52.008;4.708;2022-08-16T10:40:20;14.68;;;11.75;;
19830;SDS011;10076;52.008;4.708;2022-08-16T10:42:45;15.50;;;12.40;;
19830;SDS011;10076;52.008;4.708;2022-08-16T10:45:13;15.50;;;12.07;;
19830;SDS011;10076;52.008;4.708;2022-08-16T10:47:38;16.65;;;12.63;;
19830;SDS011;10076;52.008;4.708;2022-08-16T10:50:04;15.90;;;11.55;;
19830;SDS011;10076;52.008;4.708;2022-08-16T10:52:30;17.20;;;11.95;;
19830;SDS011;10076;52.008;4.708;2022-08-16T10:54:57;17.83;;;12.52;;
19830;SDS011;10076;52.008;4.708;2022-08-16T10:57:24;13.20;;;10.27;;
19830;SDS011;10076;52.008;4.708;2022-08-16T10:59:51;13.55;;;10.85;;
19830;SDS011;10076;52.008;4.708;2022-08-16T11:02:17;14.48;;;10.70;;
19830;SDS011;10076;52.008;4.708;2022-08-16T11:04:43;13.20;;;10.70;;
19830;SDS011;10076;52.008;4.708;2022-08-16T11:07:09;15.55;;;11.18;;
19830;SDS011;10076;52.008;4.708;2022-08-16T11:09:35;13.25;;;9.93;;
19830;SDS011;10076;52.008;4.708;2022-08-16T11:12:00;14.45;;;10.40;;
19830;SDS011;10076;52.008;4.708;2022-08-16T11:14:25;14.68;;;11.48;;
19830;SDS011;10076;52.008;4.708;2022-08-16T11:16:50;11.82;;;9.68;;
19830;SDS011;10076;52.008;4.708;2022-08-16T11:19:16;13.60;;;10.38;;
19830;SDS011;10076;52.008;4.708;2022-08-16T11:21:42;15.40;;;11.50;;
19830;SDS011;10076;52.008;4.708;2022-08-16T11:24:08;15.13;;;11.63;;
19830;SDS011;10076;52.008;4.708;2022-08-16T11:26:33;15.30;;;12.18;;
19830;SDS011;10076;52.008;4.708;2022-08-16T11:28:59;16.33;;;11.57;;
19830;SDS011;10076;52.008;4.708;2022-08-16T11:31:24;13.00;;;10.73;;
19830;SDS011;10076;52.008;4.708;2022-08-16T11:33:49;16.48;;;12.38;;
19830;SDS011;10076;52.008;4.708;2022-08-16T11:36:15;18.70;;;13.02;;
19830;SDS011;10076;52.008;4.708;2022-08-16T11:38:40;17.58;;;11.85;;
19830;SDS011;10076;52.008;4.708;2022-08-16T11:41:06;14.70;;;10.77;;
19830;SDS011;10076;52.008;4.708;2022-08-16T11:43:33;15.40;;;11.38;;
19830;SDS011;10076;52.008;4.708;2022-08-16T11:46:03;13.98;;;11.13;;
19830;SDS011;10076;52.008;4.708;2022-08-16T11:48:32;12.68;;;9.32;;
19830;SDS011;10076;52.008;4.708;2022-08-16T11:50:58;18.65;;;13.00;;
19830;SDS011;10076;52.008;4.708;2022-08-16T11:53:24;13.43;;;10.32;;
19830;SDS011;10076;52.008;4.708;2022-08-16T11:55:52;16.25;;;11.02;;
19830;SDS011;10076;52.008;4.708;2022-08-16T11:58:18;13.93;;;11.50;;
19830;SDS011;10076;52.008;4.708;2022-08-16T12:00:44;14.15;;;10.20;;
19830;SDS011;10076;52.008;4.708;2022-08-16T12:03:10;14.65;;;12.43;;
19830;SDS011;10076;52.008;4.708;2022-08-16T12:05:36;15.40;;;11.70;;
19830;SDS011;10076;52.008;4.708;2022-08-16T12:08:03;14.63;;;11.45;;
19830;SDS011;10076;52.008;4.708;2022-08-16T12:10:31;18.23;;;12.60;;
19830;SDS011;10076;52.008;4.708;2022-08-16T12:12:58;15.63;;;11.68;;
19830;SDS011;10076;52.008;4.708;2022-08-16T12:15:24;13.77;;;10.40;;
19830;SDS011;10076;52.008;4.708;2022-08-16T12:17:50;14.15;;;10.43;;
19830;SDS011;10076;52.008;4.708;2022-08-16T12:20:20;14.00;;;10.27;;
19830;SDS011;10076;52.008;4.708;2022-08-16T12:22:51;15.90;;;11.50;;
19830;SDS011;10076;52.008;4.708;2022-08-16T12:25:18;14.52;;;10.63;;
19830;SDS011;10076;52.008;4.708;2022-08-16T12:27:45;12.50;;;9.82;;
19830;SDS011;10076;52.008;4.708;2022-08-16T12:30:12;12.45;;;9.77;;
19830;SDS011;10076;52.008;4.708;2022-08-16T12:32:40;12.40;;;10.23;;
19830;SDS011;10076;52.008;4.708;2022-08-16T12:35:06;14.07;;;10.32;;
19830;SDS011;10076;52.008;4.708;2022-08-16T12:37:34;12.70;;;10.68;;
19830;SDS011;10076;52.008;4.708;2022-08-16T12:40:00;14.32;;;10.07;;
19830;SDS011;10076;52.008;4.708;2022-08-16T12:42:26;13.88;;;8.93;;
19830;SDS011;10076;52.008;4.708;2022-08-16T12:44:53;11.57;;;9.68;;
19830;SDS011;10076;52.008;4.708;2022-08-16T12:47:18;12.23;;;9.70;;
19830;SDS011;10076;52.008;4.708;2022-08-16T12:50:12;13.25;;;9.93;;
19830;SDS011;10076;52.008;4.708;2022-08-16T12:52:38;14.38;;;11.07;;
19830;SDS011;10076;52.008;4.708;2022-08-16T12:55:03;14.77;;;11.60;;
19830;SDS011;10076;52.008;4.708;2022-08-16T12:57:30;12.65;;;9.55;;
19830;SDS011;10076;52.008;4.708;2022-08-16T12:59:57;15.00;;;10.68;;
19830;SDS011;10076;52.008;4.708;2022-08-16T13:02:23;13.52;;;9.80;;
19830;SDS011;10076;52.008;4.708;2022-08-16T13:04:48;15.60;;;11.05;;
19830;SDS011;10076;52.008;4.708;2022-08-16T13:07:14;12.10;;;9.75;;
19830;SDS011;10076;52.008;4.708;2022-08-16T13:09:39;17.38;;;11.60;;
19830;SDS011;10076;52.008;4.708;2022-08-16T13:12:15;13.73;;;10.40;;
19830;SDS011;10076;52.008;4.708;2022-08-16T13:14:48;10.82;;;9.23;;
19830;SDS011;10076;52.008;4.708;2022-08-16T13:17:20;13.75;;;10.27;;
19830;SDS011;10076;52.008;4.708;2022-08-16T13:19:49;18.00;;;10.02;;
19830;SDS011;10076;52.008;4.708;2022-08-16T13:22:16;12.52;;;10.18;;
19830;SDS011;10076;52.008;4.708;2022-08-16T13:24:42;12.15;;;9.75;;
19830;SDS011;10076;52.008;4.708;2022-08-16T13:27:08;15.73;;;9.68;;
19830;SDS011;10076;52.008;4.708;2022-08-16T13:29:33;13.20;;;9.05;;
19830;SDS011;10076;52.008;4.708;2022-08-16T13:31:58;11.90;;;9.63;;
19830;SDS011;10076;52.008;4.708;2022-08-16T13:34:24;12.82;;;9.13;;
19830;SDS011;10076;52.008;4.708;2022-08-16T13:36:49;11.65;;;9.35;;
19830;SDS011;10076;52.008;4.708;2022-08-16T13:39:15;11.40;;;9.57;;
19830;SDS011;10076;52.008;4.708;2022-08-16T13:41:41;13.35;;;10.00;;
19830;SDS011;10076;52.008;4.708;2022-08-16T13:44:06;12.70;;;9.02;;
19830;SDS011;10076;52.008;4.708;2022-08-16T13:46:32;10.25;;;9.10;;
19830;SDS011;10076;52.008;4.708;2022-08-16T13:48:57;9.00;;;7.78;;
19830;SDS011;10076;52.008;4.708;2022-08-16T13:51:23;11.32;;;8.40;;
19830;SDS011;10076;52.008;4.708;2022-08-16T13:53:51;11.10;;;8.13;;
19830;SDS011;10076;52.008;4.708;2022-08-16T13:56:19;9.80;;;8.23;;
19830;SDS011;10076;52.008;4.708;2022-08-16T13:58:44;11.35;;;8.27;;
19830;SDS011;10076;52.008;4.708;2022-08-16T14:01:10;9.65;;;7.85;;
19830;SDS011;10076;52.008;4.708;2022-08-16T14:03:36;9.48;;;7.22;;
19830;SDS011;10076;52.008;4.708;2022-08-16T14:06:05;8.02;;;6.78;;
19830;SDS011;10076;52.008;4.708;2022-08-16T14:08:32;8.18;;;5.78;;
19830;SDS011;10076;52.008;4.708;2022-08-16T14:10:57;9.80;;;6.72;;
19830;SDS011;10076;52.008;4.708;2022-08-16T14:13:23;10.80;;;7.05;;
19830;SDS011;10076;52.008;4.708;2022-08-16T14:15:48;10.68;;;6.78;;
19830;SDS011;10076;52.008;4.708;2022-08-16T14:18:14;10.50;;;8.13;;
19830;SDS011;10076;52.008;4.708;2022-08-16T14:20:39;13.45;;;8.75;;
19830;SDS011;10076;52.008;4.708;2022-08-16T14:23:04;8.70;;;6.60;;
19830;SDS011;10076;52.008;4.708;2022-08-16T14:25:30;7.40;;;5.38;;